Time;durP1;ratioP1;P1;durP2;ratioP2;P2;SDS_P1;SDS_P2;PMS_P1;PMS_P2;Temp;Humidity;BMP_temperature;BMP_pressure;BME280_temperature;BME280_humidity;BME280_pressure;Samples;Min_cycle;Max_cycle;Signal;HPM_P1;HPM_P2
2021/01/07 00:00:47;;;;;;;30.80;20.25;;;;;;;10.55;100.00;100934.34;5076098;28;20032;-74
2021/01/07 00:03:38;;;;;;;33.75;21.85;;;;;;;10.79;100.00;100933.97;5075712;28;20025;-74
2021/01/07 00:06:24;;;;;;;33.15;21.83;;;;;;;10.69;100.00;100926.28;5076055;28;20025;-75
2021/01/07 00:09:10;;;;;;;40.50;24.65;;;;;;;10.31;100.00;100933.78;5074631;28;20020;-74
2021/01/07 00:11:56;;;;;;;37.85;24.80;;;;;;;10.71;100.00;100934.97;5076321;28;20486;-74
2021/01/07 00:14:42;;;;;;;42.45;25.42;;;;;;;10.41;100.00;100940.66;5075469;28;20052;-74
2021/01/07 00:17:28;;;;;;;39.92;27.10;;;;;;;10.48;100.00;100942.31;5075811;28;20117;-75
2021/01/07 00:20:14;;;;;;;36.20;24.70;;;;;;;10.75;100.00;100929.69;5075749;28;20055;-75
2021/01/07 00:23:00;;;;;;;38.15;24.38;;;;;;;11.17;100.00;100936.00;5075878;28;20044;-75
2021/01/07 00:25:48;;;;;;;36.90;23.35;;;;;;;10.58;100.00;100929.06;5075588;28;20040;-74
2021/01/07 00:28:34;;;;;;;36.95;23.80;;;;;;;11.14;100.00;100929.06;5074588;28;20028;-74
2021/01/07 00:31:19;;;;;;;32.95;22.20;;;;;;;11.20;100.00;100939.44;5075282;28;20024;-75
2021/01/07 00:34:05;;;;;;;35.45;23.42;;;;;;;10.84;100.00;100933.94;5075268;28;20028;-74
2021/01/07 00:36:55;;;;;;;36.90;24.13;;;;;;;11.25;100.00;100934.13;5075280;28;20028;-75
2021/01/07 00:39:41;;;;;;;34.58;22.85;;;;;;;11.23;100.00;100930.66;5075006;28;20070;-75
2021/01/07 00:42:27;;;;;;;33.47;22.25;;;;;;;11.37;100.00;100924.28;5075187;28;20029;-75
2021/01/07 00:45:13;;;;;;;34.08;22.40;;;;;;;11.44;100.00;100925.03;5074763;28;20024;-75
2021/01/07 00:47:59;;;;;;;32.03;21.63;;;;;;;11.50;100.00;100923.19;5075298;28;20107;-75
2021/01/07 00:50:45;;;;;;;35.35;22.48;;;;;;;11.00;100.00;100907.44;5076047;28;20074;-74
2021/01/07 00:53:31;;;;;;;30.33;20.85;;;;;;;11.09;100.00;100914.28;5075503;28;20055;-74
2021/01/07 00:56:16;;;;;;;34.38;21.65;;;;;;;11.49;100.00;100918.81;5075007;28;20028;-74
2021/01/07 00:59:03;;;;;;;31.73;20.70;;;;;;;11.03;100.00;100920.50;5074773;28;20024;-75
2021/01/07 01:01:49;;;;;;;33.22;21.95;;;;;;;11.14;100.00;100923.81;5075349;28;20480;-75
2021/01/07 01:04:35;;;;;;;32.63;21.40;;;;;;;11.65;100.00;100919.47;5075189;28;20105;-75
2021/01/07 01:07:20;;;;;;;30.35;20.95;;;;;;;11.59;100.00;100912.53;5074739;28;20362;-75
2021/01/07 01:10:10;;;;;;;28.83;19.80;;;;;;;11.36;100.00;100898.94;5074882;28;20028;-74
2021/01/07 01:12:56;;;;;;;28.55;20.23;;;;;;;11.54;100.00;100880.22;5074754;28;20413;-75
2021/01/07 01:15:42;;;;;;;30.88;21.10;;;;;;;11.18;100.00;100883.53;5074903;28;20024;-74
2021/01/07 01:18:27;;;;;;;31.20;20.52;;;;;;;11.57;100.00;100876.72;5074312;28;20064;-74
2021/01/07 01:21:16;;;;;;;30.35;20.33;;;;;;;11.22;100.00;100879.97;5074246;28;20059;-75
2021/01/07 01:24:02;;;;;;;31.80;21.02;;;;;;;11.32;100.00;100871.03;5074479;28;20386;-74
2021/01/07 01:26:58;;;;;;;34.97;22.02;;;;;;;10.75;100.00;100863.28;5074229;28;20426;-74
2021/01/07 01:29:44;;;;;;;36.03;23.08;;;;;;;11.30;100.00;100866.72;5074255;28;20343;-75
2021/01/07 01:32:29;;;;;;;39.50;24.83;;;;;;;11.24;100.00;100858.94;5074059;28;20459;-74
2021/01/07 01:35:15;;;;;;;47.08;27.95;;;;;;;11.12;100.00;100852.16;5074806;28;20028;-75
2021/01/07 01:38:01;;;;;;;41.95;26.42;;;;;;;11.46;100.00;100845.44;5073924;28;20462;-75
2021/01/07 01:40:47;;;;;;;39.47;24.88;;;;;;;11.66;100.00;100837.19;5073822;28;20050;-75
2021/01/07 01:43:36;;;;;;;34.30;22.85;;;;;;;11.51;100.00;100829.59;5074056;28;20025;-75
2021/01/07 01:46:21;;;;;;;35.53;22.92;;;;;;;11.68;100.00;100815.28;5073719;28;20028;-74
2021/01/07 01:49:09;;;;;;;38.00;23.98;;;;;;;11.58;100.00;100813.69;5073917;28;20028;-75
2021/01/07 01:51:55;;;;;;;36.58;22.30;;;;;;;11.41;100.00;100805.28;5073628;28;20060;-75
2021/01/07 01:54:43;;;;;;;28.95;20.02;;;;;;;11.62;100.00;100789.13;5074359;28;20071;-75
2021/01/07 01:57:31;;;;;;;33.22;20.73;;;;;;;11.33;100.00;100786.19;5073688;28;20036;-74
2021/01/07 02:00:17;;;;;;;48.05;27.38;;;;;;;11.41;100.00;100775.59;5073986;28;20040;-74
2021/01/07 02:03:06;;;;;;;36.75;22.23;;;;;;;10.92;100.00;100778.25;5073815;28;20028;-75
2021/01/07 02:05:53;;;;;;;40.95;25.30;;;;;;;11.49;100.00;100785.00;5074207;28;20025;-75
2021/01/07 02:08:46;;;;;;;32.15;20.23;;;;;;;11.33;100.00;100782.75;5073544;28;20020;-74
2021/01/07 02:11:32;;;;;;;32.60;20.13;;;;;;;11.60;100.00;100782.16;5073759;28;20063;-75
2021/01/07 02:14:18;;;;;;;31.08;20.00;;;;;;;11.64;100.00;100773.38;5073494;28;20039;-74
2021/01/07 02:17:04;;;;;;;34.13;21.98;;;;;;;11.56;100.00;100756.88;5073555;28;20048;-75
2021/01/07 02:19:50;;;;;;;29.73;19.08;;;;;;;11.82;100.00;100741.50;5074185;28;20031;-75
2021/01/07 02:22:35;;;;;;;32.13;21.50;;;;;;;11.46;100.00;100744.88;5073980;28;20032;-75
2021/01/07 02:25:22;;;;;;;30.33;20.27;;;;;;;11.72;100.00;100746.06;5073445;28;20025;-74
2021/01/07 02:28:09;;;;;;;27.95;18.15;;;;;;;11.67;100.00;100739.19;5073319;28;20117;-74
2021/01/07 02:30:54;;;;;;;28.23;18.77;;;;;;;11.61;100.00;100740.19;5072995;28;20039;-75
2021/01/07 02:33:41;;;;;;;28.58;17.98;;;;;;;11.46;100.00;100743.13;5073262;28;20458;-74
2021/01/07 02:36:27;;;;;;;24.92;16.08;;;;;;;11.87;100.00;100737.88;5074499;28;20024;-74
2021/01/07 02:39:13;;;;;;;24.50;16.30;;;;;;;11.68;100.00;100739.16;5072921;28;20036;-73
2021/01/07 02:41:58;;;;;;;23.48;15.25;;;;;;;11.71;100.00;100732.97;5073335;28;20032;-74
2021/01/07 02:44:44;;;;;;;22.45;16.00;;;;;;;11.72;100.00;100732.94;5073326;28;20056;-75
2021/01/07 02:47:30;;;;;;;20.05;14.10;;;;;;;12.00;100.00;100723.56;5073859;28;20102;-74
2021/01/07 02:50:16;;;;;;;19.10;13.02;;;;;;;11.80;100.00;100725.78;5072261;28;20016;-75
2021/01/07 02:53:01;;;;;;;21.23;14.18;;;;;;;11.93;100.00;100724.59;5073620;28;20035;-75
2021/01/07 02:55:47;;;;;;;22.17;15.70;;;;;;;11.85;100.00;100718.66;5073109;28;20115;-75
2021/01/07 02:58:33;;;;;;;21.85;15.80;;;;;;;11.69;100.00;100721.66;5073891;28;20017;-75
2021/01/07 03:01:19;;;;;;;22.85;16.25;;;;;;;11.57;100.00;100717.50;5072917;28;20370;-74
2021/01/07 03:04:04;;;;;;;25.15;15.35;;;;;;;11.57;100.00;100725.38;5073565;28;20039;-76
2021/01/07 03:06:50;;;;;;;35.97;18.90;;;;;;;11.63;100.00;100720.03;5073271;28;20039;-73
2021/01/07 03:09:36;;;;;;;31.30;18.65;;;;;;;11.60;100.00;100722.72;5072871;28;20048;-75
2021/01/07 03:12:21;;;;;;;27.15;17.55;;;;;;;11.64;100.00;100726.13;5073485;28;20051;-75
2021/01/07 03:15:08;;;;;;;23.25;15.00;;;;;;;11.59;100.00;100720.97;5073439;28;20422;-74
2021/01/07 03:17:53;;;;;;;28.05;17.33;;;;;;;11.61;100.00;100713.94;5072908;28;20401;-74
2021/01/07 03:20:39;;;;;;;22.73;14.80;;;;;;;11.38;100.00;100708.31;5073010;28;20339;-74
2021/01/07 03:23:25;;;;;;;22.58;13.73;;;;;;;11.34;100.00;100713.63;5073263;28;20328;-75
2021/01/07 03:26:10;;;;;;;25.48;14.65;;;;;;;11.79;100.00;100710.94;5073179;28;20398;-75
2021/01/07 03:28:56;;;;;;;20.83;13.90;;;;;;;11.84;100.00;100702.94;5073061;28;20067;-75
2021/01/07 03:31:42;;;;;;;22.63;14.63;;;;;;;11.83;100.00;100704.72;5072960;28;20073;-74
2021/01/07 03:34:28;;;;;;;21.38;13.73;;;;;;;12.05;100.00;100707.72;5072796;28;20040;-75
2021/01/07 03:37:13;;;;;;;18.40;11.98;;;;;;;11.83;100.00;100695.97;5072612;28;20028;-75
2021/01/07 03:39:59;;;;;;;19.25;11.93;;;;;;;11.51;100.00;100701.03;5072799;28;20025;-74
2021/01/07 03:42:45;;;;;;;18.10;12.50;;;;;;;11.79;100.00;100691.69;5072935;28;20020;-74
2021/01/07 03:45:31;;;;;;;25.83;15.57;;;;;;;11.68;100.00;100686.69;5076075;28;20397;-74
2021/01/07 03:48:16;;;;;;;23.60;14.80;;;;;;;11.56;100.00;100672.91;5076664;28;20025;-74
2021/01/07 03:51:02;;;;;;;23.73;15.00;;;;;;;11.68;100.00;100681.44;5076433;28;20068;-76
2021/01/07 03:53:48;;;;;;;20.92;12.98;;;;;;;11.26;100.00;100677.09;5076252;28;20056;-74
2021/01/07 03:56:34;;;;;;;16.83;11.23;;;;;;;11.13;100.00;100672.13;5076014;28;20120;-74
2021/01/07 03:59:20;;;;;;;18.75;11.00;;;;;;;11.17;100.00;100664.13;5075911;28;20043;-74
2021/01/07 04:02:05;;;;;;;23.17;14.07;;;;;;;10.91;100.00;100666.44;5076455;28;20115;-74
2021/01/07 04:04:51;;;;;;;15.15;10.40;;;;;;;11.10;100.00;100661.69;5076450;28;20063;-75
2021/01/07 04:07:38;;;;;;;15.25;10.20;;;;;;;11.49;100.00;100660.84;5075913;28;20331;-74
2021/01/07 04:10:23;;;;;;;15.35;9.98;;;;;;;11.53;100.00;100652.84;5075674;28;20106;-74
2021/01/07 04:13:09;;;;;;;17.10;10.63;;;;;;;11.60;100.00;100648.34;5075322;28;20052;-75
2021/01/07 04:15:55;;;;;;;16.15;10.05;;;;;;;11.60;100.00;100637.84;5075932;28;20121;-75
2021/01/07 04:18:41;;;;;;;14.43;10.10;;;;;;;11.30;100.00;100638.53;5075777;28;20032;-74
2021/01/07 04:21:27;;;;;;;15.80;10.07;;;;;;;11.07;100.00;100649.50;5075885;28;20447;-74
2021/01/07 04:24:14;;;;;;;13.55;9.52;;;;;;;11.32;100.00;100640.22;5075508;28;20062;-75
2021/01/07 04:27:03;;;;;;;14.50;9.95;;;;;;;11.36;100.00;100641.00;5075831;28;20406;-75
2021/01/07 04:29:49;;;;;;;15.25;10.43;;;;;;;11.42;100.00;100638.25;5076274;28;20028;-74
2021/01/07 04:32:34;;;;;;;16.00;10.13;;;;;;;11.42;100.00;100643.50;5075274;28;20379;-74
2021/01/07 04:35:21;;;;;;;15.13;10.13;;;;;;;11.12;100.00;100642.41;5075846;28;20028;-74
2021/01/07 04:38:06;;;;;;;16.52;11.02;;;;;;;11.33;100.00;100638.47;5075431;28;20111;-75
2021/01/07 04:40:52;;;;;;;17.65;11.10;;;;;;;11.36;100.00;100641.88;5075447;28;20354;-74
2021/01/07 04:43:38;;;;;;;16.05;10.32;;;;;;;11.18;100.00;100647.53;5075012;28;20020;-76
2021/01/07 04:46:25;;;;;;;13.77;10.02;;;;;;;11.33;100.00;100644.56;5074966;28;20056;-75
2021/01/07 04:49:11;;;;;;;18.25;10.70;;;;;;;11.51;100.00;100644.19;5075153;28;20036;-74
2021/01/07 04:51:57;;;;;;;15.07;9.50;;;;;;;11.64;100.00;100650.03;5074901;28;20032;-74
2021/01/07 04:54:43;;;;;;;13.32;9.23;;;;;;;11.59;100.00;100646.63;5074450;28;20134;-75
2021/01/07 04:57:29;;;;;;;16.92;9.82;;;;;;;11.10;100.00;100641.59;5075236;28;20066;-74
2021/01/07 05:00:15;;;;;;;14.43;9.90;;;;;;;11.49;100.00;100642.50;5075499;28;20477;-74
2021/01/07 05:03:01;;;;;;;14.00;9.75;;;;;;;11.51;100.00;100644.19;5075007;28;20458;-75
2021/01/07 05:05:51;;;;;;;20.95;10.80;;;;;;;11.50;100.00;100649.44;5076124;28;20024;-75
2021/01/07 05:08:37;;;;;;;17.40;10.30;;;;;;;11.61;100.00;100645.72;5074399;28;20052;-74
2021/01/07 05:11:27;;;;;;;18.08;11.93;;;;;;;11.22;100.00;100649.19;5074725;28;20052;-74
2021/01/07 05:14:13;;;;;;;16.63;11.02;;;;;;;11.29;100.00;100640.28;5074559;28;20162;-74
2021/01/07 05:16:59;;;;;;;13.57;10.25;;;;;;;11.18;100.00;100639.69;5074457;28;20036;-75
2021/01/07 05:19:44;;;;;;;18.90;10.07;;;;;;;11.05;100.00;100640.81;5074610;28;20060;-74
2021/01/07 05:22:41;;;;;;;11.50;8.43;;;;;;;11.09;100.00;100649.47;5074121;28;20110;-73
2021/01/07 05:25:30;;;;;;;13.50;8.15;;;;;;;10.95;100.00;100655.00;5074850;28;20024;-75
2021/01/07 05:28:17;;;;;;;12.23;8.07;;;;;;;11.26;100.00;100650.88;5074747;28;20043;-74
2021/01/07 05:31:03;;;;;;;11.63;7.97;;;;;;;11.35;100.00;100648.03;5074798;28;20040;-75
2021/01/07 05:33:49;;;;;;;11.48;7.63;;;;;;;11.28;100.00;100641.19;5074824;28;20062;-74
2021/01/07 05:36:35;;;;;;;13.35;7.57;;;;;;;11.45;100.00;100641.69;5074706;28;20359;-74
2021/01/07 05:39:21;;;;;;;13.48;7.35;;;;;;;11.48;100.00;100632.88;5074096;28;20132;-74
2021/01/07 05:42:07;;;;;;;12.07;6.90;;;;;;;11.30;100.00;100628.91;5074381;28;20016;-74
2021/01/07 05:44:54;;;;;;;13.95;7.78;;;;;;;11.08;100.00;100648.59;5074588;28;20108;-75
2021/01/07 05:47:49;;;;;;;15.10;7.90;;;;;;;11.23;100.00;100648.28;5074296;28;20066;-75
2021/01/07 05:50:40;;;;;;;14.55;7.60;;;;;;;11.21;100.00;100651.84;5074272;28;20111;-74
2021/01/07 05:53:26;;;;;;;13.70;8.52;;;;;;;11.52;100.00;100648.53;5074227;28;20064;-75
2021/01/07 05:56:12;;;;;;;13.82;8.90;;;;;;;11.55;100.00;100651.09;5074406;28;20365;-76
2021/01/07 05:58:59;;;;;;;16.23;9.18;;;;;;;11.09;100.00;100658.19;5074351;28;20024;-75
2021/01/07 06:01:45;;;;;;;15.32;9.68;;;;;;;11.18;100.00;100660.66;5074295;28;20025;-74
2021/01/07 06:04:35;;;;;;;15.35;10.15;;;;;;;11.61;100.00;100663.25;5073289;28;20063;-76
2021/01/07 06:07:25;;;;;;;16.23;10.18;;;;;;;11.60;100.00;100658.84;5073386;28;20421;-75
2021/01/07 06:10:12;;;;;;;23.25;11.10;;;;;;;11.51;100.00;100652.06;5073944;28;20025;-75
2021/01/07 06:12:57;;;;;;;24.50;11.43;;;;;;;11.39;100.00;100644.44;5073670;28;20052;-74
2021/01/07 06:15:47;;;;;;;21.73;11.25;;;;;;;11.19;100.00;100649.25;5074866;28;20060;-75
2021/01/07 06:18:33;;;;;;;17.50;10.35;;;;;;;10.89;100.00;100657.72;5074465;28;20032;-75
2021/01/07 06:21:21;;;;;;;19.83;10.88;;;;;;;11.30;100.00;100667.38;5073062;28;20113;-76
2021/01/07 06:24:07;;;;;;;17.42;10.10;;;;;;;11.58;100.00;100668.50;5074205;28;20070;-75
2021/01/07 06:26:53;;;;;;;14.90;10.43;;;;;;;10.96;100.00;100675.06;5073170;28;20155;-75
2021/01/07 06:29:39;;;;;;;17.67;10.20;;;;;;;11.29;100.00;100668.28;5074194;28;20454;-74
2021/01/07 06:32:28;;;;;;;16.55;9.93;;;;;;;11.29;100.00;100671.75;5073243;28;20370;-75
2021/01/07 06:35:16;;;;;;;15.50;9.57;;;;;;;11.36;100.00;100677.72;5074132;28;20378;-75
2021/01/07 06:38:02;;;;;;;14.93;10.00;;;;;;;11.58;100.00;100695.59;5073886;28;20089;-76
2021/01/07 06:40:48;;;;;;;18.73;10.75;;;;;;;11.51;100.00;100691.41;5074510;28;20408;-76
2021/01/07 06:43:33;;;;;;;20.10;11.40;;;;;;;11.30;100.00;100689.25;5073265;28;20059;-75
2021/01/07 06:46:47;;;;;;;20.80;12.30;;;;;;;11.64;100.00;100687.63;5073172;28;20028;-74
2021/01/07 06:49:33;;;;;;;21.63;13.30;;;;;;;11.72;100.00;100687.47;5073317;28;20050;-75
2021/01/07 06:52:23;;;;;;;19.17;12.60;;;;;;;12.07;100.00;100693.63;5073706;28;20039;-74
2021/01/07 06:55:13;;;;;;;23.00;13.32;;;;;;;11.41;100.00;100700.34;5073457;28;20450;-75
2021/01/07 06:57:59;;;;;;;20.55;12.45;;;;;;;11.77;100.00;100699.59;5072873;28;20094;-75
2021/01/07 07:00:46;;;;;;;19.73;12.68;;;;;;;12.31;100.00;100703.56;5072890;28;20090;-74
2021/01/07 07:03:32;;;;;;;19.20;12.05;;;;;;;12.48;100.00;100706.63;5073362;28;20100;-76
2021/01/07 07:06:21;;;;;;;20.63;12.15;;;;;;;12.15;100.00;100709.19;5073535;28;20043;-75
2021/01/07 07:09:20;;;;;;;21.92;10.98;;;;;;;12.16;100.00;100710.91;5072974;28;20032;-75
2021/01/07 07:12:06;;;;;;;20.98;12.05;;;;;;;12.48;100.00;100718.88;5072998;28;20048;-75
2021/01/07 07:14:52;;;;;;;21.52;11.35;;;;;;;12.67;100.00;100718.38;5072826;28;20024;-75
2021/01/07 07:17:42;;;;;;;24.08;10.60;;;;;;;12.69;100.00;100732.34;5074527;28;20056;-75
2021/01/07 07:20:28;;;;;;;18.95;10.10;;;;;;;12.71;100.00;100753.34;5077249;28;20033;-74
2021/01/07 07:23:21;;;;;;;14.18;9.02;;;;;;;12.63;100.00;100787.72;5076410;28;20028;-74
2021/01/07 07:26:10;;;;;;;13.18;8.30;;;;;;;11.74;100.00;100802.00;5076258;28;20044;-76
2021/01/07 07:28:57;;;;;;;13.20;7.82;;;;;;;11.39;100.00;100811.44;5077611;28;20024;-74
2021/01/07 07:31:47;;;;;;;10.10;7.03;;;;;;;11.46;100.00;100816.56;5076107;28;20024;-75
2021/01/07 07:34:32;;;;;;;13.90;7.22;;;;;;;11.27;100.00;100828.31;5077005;28;20025;-73
2021/01/07 07:37:20;;;;;;;8.43;6.18;;;;;;;11.12;100.00;100836.44;5076733;28;20020;-74
2021/01/07 07:40:07;;;;;;;10.85;5.78;;;;;;;11.55;100.00;100849.63;5076630;28;20445;-74
2021/01/07 07:42:56;;;;;;;9.45;6.70;;;;;;;11.57;100.00;100853.94;5077089;28;20051;-75
2021/01/07 07:45:42;;;;;;;14.10;6.85;;;;;;;11.54;100.00;100858.41;5076516;28;20361;-74
2021/01/07 07:48:30;;;;;;;16.45;7.38;;;;;;;11.03;100.00;100861.94;5076742;28;20035;-74
2021/01/07 07:51:16;;;;;;;10.40;7.40;;;;;;;10.72;100.00;100848.47;5075543;28;20056;-74
2021/01/07 07:54:11;;;;;;;12.68;7.38;;;;;;;11.26;100.00;100857.16;5076043;28;20370;-74
2021/01/07 07:56:59;;;;;;;15.10;7.25;;;;;;;10.61;100.00;100854.78;5076387;28;20036;-74
2021/01/07 07:59:45;;;;;;;14.73;8.93;;;;;;;10.99;100.00;100870.75;5076742;28;20027;-74
2021/01/07 08:02:30;;;;;;;15.25;8.63;;;;;;;10.99;100.00;100858.53;5075209;28;20039;-74
2021/01/07 08:05:27;;;;;;;14.55;8.80;;;;;;;10.91;100.00;100855.16;5076850;28;20111;-74
2021/01/07 08:08:24;;;;;;;14.32;9.05;;;;;;;10.78;100.00;100865.88;5075357;28;20035;-75
2021/01/07 08:11:10;;;;;;;14.77;9.80;;;;;;;11.08;100.00;100874.09;5074924;28;20020;-75
2021/01/07 08:13:55;;;;;;;19.42;9.40;;;;;;;10.94;100.00;100872.59;5075985;28;20029;-74
2021/01/07 08:16:41;;;;;;;11.68;8.38;;;;;;;10.33;100.00;100877.88;5076080;28;20036;-76
2021/01/07 08:19:32;;;;;;;15.40;8.77;;;;;;;10.58;100.00;100881.03;5075874;28;20492;-75
2021/01/07 08:22:27;;;;;;;16.38;10.50;;;;;;;10.53;100.00;100888.09;5075075;28;20119;-74
2021/01/07 08:25:24;;;;;;;16.00;10.25;;;;;;;10.90;100.00;100884.91;5075293;28;20021;-75
2021/01/07 08:28:22;;;;;;;14.20;10.40;;;;;;;11.50;100.00;100890.84;5075243;28;20147;-74
2021/01/07 08:31:14;;;;;;;17.50;10.02;;;;;;;10.99;100.00;100894.34;5074536;28;20025;-74
2021/01/07 08:34:02;;;;;;;14.80;10.68;;;;;;;10.80;100.00;100906.03;5074954;28;20451;-74
2021/01/07 08:36:48;;;;;;;19.85;10.50;;;;;;;11.47;100.00;100910.13;5075702;28;20024;-74
2021/01/07 08:39:39;;;;;;;17.52;10.30;;;;;;;11.85;100.00;100922.56;5074668;28;20016;-74
2021/01/07 08:42:35;;;;;;;16.38;10.68;;;;;;;11.60;100.00;100922.16;5074998;28;20027;-75
2021/01/07 08:45:27;;;;;;;15.25;9.52;;;;;;;11.64;100.00;100929.06;5074908;28;20403;-75
2021/01/07 08:48:13;;;;;;;15.43;10.25;;;;;;;11.69;100.00;100942.97;5076385;28;20028;-75
2021/01/07 08:50:59;;;;;;;14.20;9.18;;;;;;;11.38;100.00;100928.66;5074857;28;20029;-76
2021/01/07 08:53:55;;;;;;;14.98;10.07;;;;;;;10.94;100.00;100933.75;5075183;28;20024;-76
2021/01/07 08:56:47;;;;;;;15.40;10.68;;;;;;;10.84;100.00;100931.31;5075419;28;20028;-75
2021/01/07 08:59:36;;;;;;;17.17;10.82;;;;;;;11.08;100.00;100942.25;5074571;28;20020;-75
2021/01/07 09:02:22;;;;;;;17.42;11.07;;;;;;;10.17;100.00;100943.59;5074902;28;20029;-75
2021/01/07 09:05:09;;;;;;;18.52;12.27;;;;;;;10.13;100.00;100940.16;5074498;28;20082;-75
2021/01/07 09:08:05;;;;;;;21.75;12.40;;;;;;;10.71;100.00;100929.72;5074647;28;20028;-75
2021/01/07 09:10:51;;;;;;;21.15;12.55;;;;;;;10.44;100.00;100925.75;5074799;28;20028;-74
2021/01/07 09:13:37;;;;;;;17.83;12.93;;;;;;;10.62;100.00;100914.16;5075369;28;20056;-75
2021/01/07 09:16:23;;;;;;;20.35;13.18;;;;;;;10.60;100.00;100929.03;5074663;28;20413;-75
2021/01/07 09:19:08;;;;;;;17.60;12.23;;;;;;;10.58;100.00;100929.06;5075078;28;20024;-78
2021/01/07 09:22:03;;;;;;;22.50;13.18;;;;;;;10.65;100.00;100933.31;5074192;28;20117;-75
2021/01/07 09:24:51;;;;;;;20.30;14.27;;;;;;;11.12;100.00;100930.84;5075164;28;20043;-74
2021/01/07 09:27:36;;;;;;;19.88;14.10;;;;;;;10.70;100.00;100949.84;5074416;28;20071;-75
2021/01/07 09:30:23;;;;;;;25.98;16.50;;;;;;;10.83;100.00;100942.66;5074316;28;20024;-74
2021/01/07 09:33:09;;;;;;;27.20;19.73;;;;;;;10.40;100.00;100952.88;5074441;28;20039;-73
2021/01/07 09:35:54;;;;;;;30.67;21.00;;;;;;;10.50;100.00;100940.53;5074025;28;20044;-74
2021/01/07 09:38:40;;;;;;;29.48;21.58;;;;;;;10.67;100.00;100926.31;5073703;28;20417;-74
2021/01/07 09:41:26;;;;;;;31.55;22.17;;;;;;;10.86;100.00;100940.00;5073021;28;20020;-74
2021/01/07 09:44:12;;;;;;;34.17;22.85;;;;;;;10.79;100.00;100965.44;5074777;28;20028;-72
2021/01/07 09:46:58;;;;;;;34.40;24.25;;;;;;;10.86;100.00;100940.88;5074047;28;20032;-74
2021/01/07 09:49:44;;;;;;;35.03;23.73;;;;;;;10.82;100.00;100951.41;5074505;28;20056;-74
2021/01/07 09:52:31;;;;;;;33.85;23.33;;;;;;;11.00;100.00;100952.00;5073488;28;20028;-73
2021/01/07 09:55:17;;;;;;;32.70;23.13;;;;;;;11.38;100.00;100961.88;5073794;28;20028;-74
2021/01/07 09:58:03;;;;;;;36.17;23.30;;;;;;;11.11;100.00;100968.44;5073514;28;20024;-74
2021/01/07 10:00:48;;;;;;;36.00;21.83;;;;;;;10.71;100.00;100982.13;5073632;28;20028;-74
2021/01/07 10:03:34;;;;;;;33.00;21.35;;;;;;;10.76;100.00;100975.94;5073376;28;20446;-74
2021/01/07 10:06:20;;;;;;;29.95;21.38;;;;;;;10.68;100.00;100987.44;5073877;28;20055;-74
2021/01/07 10:09:05;;;;;;;30.73;20.83;;;;;;;10.28;100.00;100987.06;5073421;28;20024;-73
2021/01/07 10:11:57;;;;;;;25.98;19.35;;;;;;;10.34;100.00;100975.66;5072836;28;20124;-74
2021/01/07 10:14:42;;;;;;;28.42;20.23;;;;;;;10.36;100.00;100979.97;5073771;28;20024;-73
2021/01/07 10:17:28;;;;;;;27.67;18.92;;;;;;;10.16;100.00;100975.88;5073331;28;20036;-73
2021/01/07 10:20:14;;;;;;;26.55;19.73;;;;;;;10.47;100.00;100977.22;5073113;28;20082;-74
2021/01/07 10:23:05;;;;;;;26.95;19.90;;;;;;;10.64;100.00;100973.50;5073700;28;20086;-73
2021/01/07 10:25:51;;;;;;;29.05;20.70;;;;;;;10.83;100.00;100974.09;5073594;28;20033;-74
2021/01/07 10:28:38;;;;;;;29.77;21.40;;;;;;;10.62;100.00;100998.88;5073681;28;20021;-74
2021/01/07 10:31:23;;;;;;;31.00;21.77;;;;;;;10.23;100.00;101001.09;5073147;28;20036;-74
2021/01/07 10:34:09;;;;;;;35.22;23.67;;;;;;;10.32;100.00;100983.53;5073214;28;20052;-74
2021/01/07 10:36:57;;;;;;;31.30;21.17;;;;;;;10.09;100.00;100972.47;5073692;28;20024;-74
2021/01/07 10:39:53;;;;;;;30.15;19.77;;;;;;;10.30;100.00;100987.06;5073522;28;20056;-74
2021/01/07 10:42:39;;;;;;;27.02;19.35;;;;;;;10.17;100.00;100991.59;5073398;28;20111;-74
2021/01/07 10:45:26;;;;;;;26.92;19.48;;;;;;;10.44;100.00;100993.00;5072967;28;20446;-75
2021/01/07 10:48:14;;;;;;;25.25;16.85;;;;;;;10.25;100.00;101000.22;5072845;28;20068;-74
2021/01/07 10:51:02;;;;;;;17.55;10.07;;;;;;;10.13;100.00;101016.06;5072996;28;20034;-74
2021/01/07 10:54:13;;;;;;;11.02;7.60;;;;;;;9.87;100.00;101003.22;5076329;28;20024;-74
2021/01/07 10:57:55;;;;;;;9.27;6.15;;;;;;;10.05;100.00;100991.72;5077723;28;20039;-75
2021/01/07 11:01:04;;;;;;;9.82;7.07;;;;;;;9.86;100.00;100993.59;4997899;28;20468;-74
2021/01/07 11:03:55;;;;;;;9.52;6.25;;;;;;;10.07;100.00;100992.56;4998772;28;20022;-74
2021/01/07 11:06:52;;;;;;;9.38;5.97;;;;;;;10.33;100.00;100989.63;5077494;28;20370;-75
2021/01/07 11:09:43;;;;;;;10.50;6.15;;;;;;;10.55;100.00;101001.56;5077714;28;20085;-75
2021/01/07 11:12:39;;;;;;;10.48;7.13;;;;;;;10.29;100.00;100998.41;5077289;28;20084;-75
2021/01/07 11:15:28;;;;;;;14.70;7.70;;;;;;;10.14;100.00;100994.22;5077241;28;20024;-74
2021/01/07 11:18:19;;;;;;;13.90;8.55;;;;;;;9.88;100.00;100988.34;5077900;28;20455;-75
2021/01/07 11:21:09;;;;;;;13.68;8.70;;;;;;;10.05;100.00;100991.72;5077062;28;20035;-74
2021/01/07 11:23:56;;;;;;;12.60;9.50;;;;;;;10.26;100.00;100985.34;5077022;28;20021;-75
2021/01/07 11:26:46;;;;;;;15.82;10.27;;;;;;;10.65;100.00;100995.34;5077246;28;20028;-75
2021/01/07 11:29:34;;;;;;;13.60;10.30;;;;;;;10.59;100.00;100990.16;5075493;28;20059;-74
2021/01/07 11:32:21;;;;;;;17.00;12.18;;;;;;;10.75;100.00;100989.06;5076965;28;20047;-74
2021/01/07 11:35:09;;;;;;;17.98;12.57;;;;;;;11.05;100.00;100981.63;5076116;28;20025;-75
2021/01/07 11:38:00;;;;;;;21.25;14.45;;;;;;;11.05;100.00;100986.03;5076330;28;20028;-75
2021/01/07 11:41:02;;;;;;;21.38;14.75;;;;;;;11.02;100.00;100991.31;5077284;28;20078;-74
2021/01/07 11:44:03;;;;;;;23.27;15.77;;;;;;;10.44;100.00;100996.47;5076133;28;20075;-74
2021/01/07 11:46:51;;;;;;;22.35;15.88;;;;;;;10.81;100.00;101000.34;5076105;28;20032;-74
2021/01/07 11:49:45;;;;;;;20.02;14.63;;;;;;;10.59;100.00;100998.03;5076366;28;20058;-75
2021/01/07 11:52:32;;;;;;;18.13;12.60;;;;;;;10.75;100.00;100999.56;5076002;28;20032;-74
2021/01/07 11:55:18;;;;;;;13.82;9.27;;;;;;;10.30;100.00;100989.66;5076146;28;20017;-74
2021/01/07 11:58:16;;;;;;;13.68;9.43;;;;;;;10.24;100.00;100995.00;5076320;28;20056;-74
2021/01/07 12:01:02;;;;;;;12.05;8.13;;;;;;;10.55;100.00;101014.66;5075824;28;20474;-74
2021/01/07 12:03:48;;;;;;;10.35;7.25;;;;;;;10.58;100.00;101009.41;5075841;28;20405;-73
2021/01/07 12:06:37;;;;;;;9.77;7.18;;;;;;;10.55;100.00;101020.78;5077377;28;20020;-74
2021/01/07 12:09:30;;;;;;;11.25;7.30;;;;;;;10.56;100.00;101019.03;5075445;28;20025;-74
2021/01/07 12:12:16;;;;;;;10.10;6.53;;;;;;;10.79;100.00;101011.72;5076170;28;20062;-74
2021/01/07 12:15:04;;;;;;;10.90;6.35;;;;;;;11.00;100.00;100996.56;5076054;28;20024;-74
2021/01/07 12:17:51;;;;;;;8.40;6.00;;;;;;;10.98;100.00;101005.34;5076239;28;20089;-74
2021/01/07 12:20:37;;;;;;;10.13;6.07;;;;;;;10.87;100.00;101004.63;5076930;28;20112;-74
2021/01/07 12:23:25;;;;;;;10.40;5.43;;;;;;;10.83;100.00;101009.06;5076395;28;20108;-73
2021/01/07 12:26:12;;;;;;;9.07;6.32;;;;;;;10.71;100.00;101001.38;5076762;28;20119;-73
2021/01/07 12:28:58;;;;;;;8.95;5.25;;;;;;;10.85;100.00;100999.41;5076017;28;20031;-73
2021/01/07 12:31:48;;;;;;;10.65;5.20;;;;;;;10.45;100.00;101019.16;5076927;28;20111;-74
2021/01/07 12:34:37;;;;;;;7.93;5.30;;;;;;;10.35;100.00;101006.19;5076726;28;20028;-74
2021/01/07 12:37:23;;;;;;;10.63;5.65;;;;;;;11.00;100.00;101011.41;5076298;28;20016;-74